Private Wetterstation Sandau
Wetterdaten: Montag, 21.05.2012
Datum Zeit Temp. A. Feuchte A. Luftdruck Regen Wind Richtung Richtung Taupunkt Windchill
21.05.2012 00:01 19,3 C 51 % 1006,7 hPa 0,0 l/m 5,0 km/h (1 Bft) N-NO 22 8,9 C 19,3 C
21.05.2012 00:06 19,2 C 51 % 1006,7 hPa 0,0 l/m 4,7 km/h (1 Bft) O-SO 112 8,8 C 19,2 C
21.05.2012 00:11 19,1 C 51 % 1006,7 hPa 0,0 l/m 5,4 km/h (1 Bft) O-NO 67 8,7 C 19,1 C
21.05.2012 00:16 19,1 C 51 % 1006,6 hPa 0,0 l/m 5,8 km/h (2 Bft) O-NO 67 8,7 C 19,1 C
21.05.2012 00:21 19,0 C 51 % 1006,6 hPa 0,0 l/m 4,7 km/h (1 Bft) O-NO 67 8,6 C 19,0 C
21.05.2012 00:26 18,9 C 51 % 1006,6 hPa 0,0 l/m 3,2 km/h (1 Bft) O-NO 67 8,5 C 18,9 C
21.05.2012 00:31 18,9 C 52 % 1006,6 hPa 0,0 l/m 12,6 km/h (3 Bft) O 90 8,8 C 18,9 C
21.05.2012 00:36 18,9 C 52 % 1006,6 hPa 0,0 l/m 7,6 km/h (2 Bft) O 90 8,8 C 18,9 C
21.05.2012 00:41 18,8 C 52 % 1006,5 hPa 0,0 l/m 4,0 km/h (1 Bft) O-NO 67 8,7 C 18,8 C
21.05.2012 00:46 18,7 C 52 % 1006,5 hPa 0,0 l/m 3,6 km/h (1 Bft) NO 45 8,6 C 18,7 C
21.05.2012 00:51 18,6 C 53 % 1006,4 hPa 0,0 l/m 3,6 km/h (1 Bft) O-NO 67 8,8 C 18,6 C
21.05.2012 00:56 18,4 C 53 % 1006,3 hPa 0,0 l/m 5,8 km/h (2 Bft) O 90 8,6 C 18,4 C
21.05.2012 01:01 18,4 C 53 % 1006,4 hPa 0,0 l/m 6,8 km/h (2 Bft) O-NO 67 8,6 C 18,4 C
21.05.2012 01:06 18,3 C 54 % 1006,3 hPa 0,0 l/m 5,4 km/h (1 Bft) O-NO 67 8,8 C 18,3 C
21.05.2012 01:11 18,2 C 54 % 1006,3 hPa 0,0 l/m 2,9 km/h (1 Bft) O-NO 67 8,7 C 18,2 C
21.05.2012 01:16 18,1 C 54 % 1006,2 hPa 0,0 l/m 5,4 km/h (1 Bft) O-NO 67 8,6 C 18,1 C
21.05.2012 01:21 18,0 C 55 % 1006,2 hPa 0,0 l/m 6,1 km/h (2 Bft) O-NO 67 8,8 C 18,0 C
21.05.2012 01:26 17,9 C 55 % 1006,2 hPa 0,0 l/m 3,6 km/h (1 Bft) O 90 8,7 C 17,9 C
21.05.2012 01:31 17,9 C 55 % 1006,2 hPa 0,0 l/m 6,5 km/h (2 Bft) O 90 8,7 C 17,9 C
21.05.2012 01:36 17,9 C 56 % 1006,3 hPa 0,0 l/m 4,7 km/h (1 Bft) O-NO 67 9,0 C 17,9 C
21.05.2012 01:41 17,8 C 56 % 1006,2 hPa 0,0 l/m 6,1 km/h (2 Bft) O-NO 67 8,9 C 17,8 C
21.05.2012 01:46 17,8 C 56 % 1006,2 hPa 0,0 l/m 4,3 km/h (1 Bft) O-NO 67 8,9 C 17,8 C
21.05.2012 01:51 17,8 C 57 % 1006,2 hPa 0,0 l/m 5,4 km/h (1 Bft) O-NO 67 9,2 C 17,8 C
21.05.2012 01:56 17,7 C 57 % 1006,2 hPa 0,0 l/m 6,1 km/h (2 Bft) O-NO 67 9,1 C 17,7 C
21.05.2012 02:01 17,6 C 57 % 1006,1 hPa 0,0 l/m 6,1 km/h (2 Bft) O-NO 67 9,0 C 17,6 C
21.05.2012 02:06 17,6 C 57 % 1006,1 hPa 0,0 l/m 4,0 km/h (1 Bft) O 90 9,0 C 17,6 C
21.05.2012 02:11 17,6 C 57 % 1006,0 hPa 0,0 l/m 3,2 km/h (1 Bft) O-NO 67 9,0 C 17,6 C
21.05.2012 02:16 17,6 C 58 % 1006,1 hPa 0,0 l/m 4,0 km/h (1 Bft) N-NO 22 9,2 C 17,6 C
21.05.2012 02:21 17,5 C 58 % 1005,9 hPa 0,0 l/m 4,3 km/h (1 Bft) O-NO 67 9,1 C 17,5 C
21.05.2012 02:26 17,5 C 58 % 1005,9 hPa 0,0 l/m 3,6 km/h (1 Bft) O 90 9,1 C 17,5 C
21.05.2012 02:31 17,4 C 58 % 1005,9 hPa 0,0 l/m 5,8 km/h (2 Bft) O-NO 67 9,1 C 17,4 C
21.05.2012 02:36 17,4 C 59 % 1005,9 hPa 0,0 l/m 3,2 km/h (1 Bft) O-SO 112 9,3 C 17,4 C
21.05.2012 02:41 17,4 C 59 % 1005,9 hPa 0,0 l/m 3,2 km/h (1 Bft) NO 45 9,3 C 17,4 C
21.05.2012 02:46 17,3 C 59 % 1005,9 hPa 0,0 l/m 7,6 km/h (2 Bft) O-NO 67 9,2 C 17,3 C
21.05.2012 02:51 17,3 C 59 % 1005,8 hPa 0,0 l/m 5,0 km/h (1 Bft) O 90 9,2 C 17,3 C
21.05.2012 02:56 17,2 C 60 % 1005,9 hPa 0,0 l/m 7,2 km/h (2 Bft) O-NO 67 9,4 C 17,2 C
21.05.2012 03:01 17,1 C 60 % 1005,8 hPa 0,0 l/m 5,8 km/h (2 Bft) O-SO 112 9,3 C 17,1 C
21.05.2012 03:06 17,0 C 61 % 1005,8 hPa 0,0 l/m 6,8 km/h (2 Bft) O 90 9,4 C 17,0 C
21.05.2012 03:11 17,0 C 61 % 1005,8 hPa 0,0 l/m 7,2 km/h (2 Bft) O 90 9,4 C 17,0 C
21.05.2012 03:16 16,9 C 61 % 1005,8 hPa 0,0 l/m 4,7 km/h (1 Bft) O-NO 67 9,3 C 16,9 C
21.05.2012 03:21 16,8 C 62 % 1005,6 hPa 0,0 l/m 5,0 km/h (1 Bft) O-NO 67 9,5 C 16,8 C
21.05.2012 03:26 16,7 C 62 % 1005,8 hPa 0,0 l/m 3,6 km/h (1 Bft) O 90 9,4 C 16,7 C
21.05.2012 03:31 16,6 C 62 % 1005,7 hPa 0,0 l/m 8,3 km/h (2 Bft) O-NO 67 9,3 C 16,6 C
21.05.2012 03:36 16,5 C 62 % 1005,6 hPa 0,0 l/m 6,1 km/h (2 Bft) O-NO 67 9,2 C 16,5 C
21.05.2012 03:41 16,4 C 63 % 1005,5 hPa 0,0 l/m 3,2 km/h (1 Bft) O-NO 67 9,3 C 16,4 C
21.05.2012 03:46 16,4 C 63 % 1005,5 hPa 0,0 l/m 6,5 km/h (2 Bft) O 90 9,3 C 16,4 C
21.05.2012 03:51 16,3 C 64 % 1005,5 hPa 0,0 l/m 10,1 km/h (2 Bft) O-NO 67 9,5 C 16,3 C
21.05.2012 03:56 16,3 C 64 % 1005,2 hPa 0,0 l/m 4,0 km/h (1 Bft) O-NO 67 9,5 C 16,3 C
21.05.2012 04:01 16,2 C 64 % 1005,2 hPa 0,0 l/m 7,2 km/h (2 Bft) O-SO 112 9,4 C 16,2 C
21.05.2012 04:06 16,2 C 64 % 1005,1 hPa 0,0 l/m 9,0 km/h (2 Bft) O 90 9,4 C 16,2 C
21.05.2012 04:11 16,1 C 65 % 1005,1 hPa 0,0 l/m 3,6 km/h (1 Bft) O-SO 112 9,5 C 16,1 C
21.05.2012 04:16 16,1 C 65 % 1004,9 hPa 0,0 l/m 5,4 km/h (1 Bft) O 90 9,5 C 16,1 C
21.05.2012 04:21 16,1 C 65 % 1004,8 hPa 0,0 l/m 6,5 km/h (2 Bft) O-NO 67 9,5 C 16,1 C
21.05.2012 04:26 16,0 C 65 % 1004,9 hPa 0,0 l/m 8,3 km/h (2 Bft) O-NO 67 9,4 C 16,0 C
21.05.2012 04:31 15,9 C 65 % 1004,8 hPa 0,0 l/m 6,8 km/h (2 Bft) O-NO 67 9,3 C 15,9 C
21.05.2012 04:36 15,9 C 66 % 1004,8 hPa 0,0 l/m 3,2 km/h (1 Bft) O 90 9,6 C 15,9 C
21.05.2012 04:41 15,9 C 66 % 1004,8 hPa 0,0 l/m 6,5 km/h (2 Bft) O 90 9,6 C 15,9 C
21.05.2012 04:46 15,9 C 66 % 1004,7 hPa 0,0 l/m 5,0 km/h (1 Bft) O-NO 67 9,6 C 15,9 C
21.05.2012 04:51 15,8 C 66 % 1004,7 hPa 0,0 l/m 5,8 km/h (2 Bft) O 90 9,5 C 15,8 C
21.05.2012 04:56 15,8 C 66 % 1004,5 hPa 0,0 l/m 6,1 km/h (2 Bft) O-NO 67 9,5 C 15,8 C
21.05.2012 05:01 15,7 C 66 % 1004,6 hPa 0,0 l/m 4,0 km/h (1 Bft) O-NO 67 9,4 C 15,7 C
21.05.2012 05:06 15,6 C 66 % 1004,5 hPa 0,0 l/m 7,2 km/h (2 Bft) O-NO 67 9,3 C 15,6 C
21.05.2012 05:11 15,6 C 66 % 1004,5 hPa 0,0 l/m 7,2 km/h (2 Bft) O 90 9,3 C 15,6 C
21.05.2012 05:16 15,6 C 66 % 1004,4 hPa 0,0 l/m 5,8 km/h (2 Bft) O-NO 67 9,3 C 15,6 C
21.05.2012 05:21 15,6 C 67 % 1004,5 hPa 0,0 l/m 4,3 km/h (1 Bft) O-NO 67 9,5 C 15,6 C
21.05.2012 05:26 15,5 C 67 % 1004,6 hPa 0,0 l/m 7,6 km/h (2 Bft) O 90 9,4 C 15,5 C
21.05.2012 05:31 15,5 C 67 % 1004,6 hPa 0,0 l/m 6,5 km/h (2 Bft) O-SO 112 9,4 C 15,5 C
21.05.2012 05:36 15,4 C 67 % 1004,6 hPa 0,0 l/m 5,4 km/h (1 Bft) O 90 9,3 C 15,4 C
21.05.2012 05:41 15,4 C 67 % 1004,6 hPa 0,0 l/m 3,6 km/h (1 Bft) O-NO 67 9,3 C 15,4 C
21.05.2012 05:46 15,4 C 68 % 1004,7 hPa 0,0 l/m 8,3 km/h (2 Bft) O 90 9,5 C 15,4 C
21.05.2012 05:51 15,4 C 68 % 1004,6 hPa 0,0 l/m 3,2 km/h (1 Bft) O 90 9,5 C 15,4 C
21.05.2012 05:56 15,4 C 68 % 1004,7 hPa 0,0 l/m 7,6 km/h (2 Bft) O-SO 112 9,5 C 15,4 C
21.05.2012 06:01 15,4 C 68 % 1004,6 hPa 0,0 l/m 10,1 km/h (2 Bft) O-NO 67 9,5 C 15,4 C
21.05.2012 06:06 15,4 C 68 % 1004,6 hPa 0,0 l/m 8,6 km/h (2 Bft) O-SO 112 9,5 C 15,4 C
21.05.2012 06:11 15,4 C 68 % 1004,6 hPa 0,0 l/m 8,3 km/h (2 Bft) O-SO 112 9,5 C 15,4 C
21.05.2012 06:16 15,4 C 68 % 1004,5 hPa 0,0 l/m 9,7 km/h (2 Bft) O-NO 67 9,5 C 15,4 C
21.05.2012 06:21 15,5 C 68 % 1004,6 hPa 0,0 l/m 7,2 km/h (2 Bft) O 90 9,6 C 15,5 C
21.05.2012 06:26 15,6 C 68 % 1004,5 hPa 0,0 l/m 9,4 km/h (2 Bft) O-SO 112 9,7 C 15,6 C
21.05.2012 06:31 15,6 C 68 % 1004,4 hPa 0,0 l/m 7,2 km/h (2 Bft) O-NO 67 9,7 C 15,6 C
21.05.2012 06:36 15,8 C 68 % 1004,4 hPa 0,0 l/m 7,6 km/h (2 Bft) O 90 9,9 C 15,8 C
21.05.2012 06:41 15,9 C 67 % 1004,4 hPa 0,0 l/m 5,8 km/h (2 Bft) O 90 9,8 C 15,9 C
21.05.2012 06:46 16,1 C 67 % 1004,5 hPa 0,0 l/m 7,6 km/h (2 Bft) O-NO 67 10,0 C 16,1 C
21.05.2012 06:51 16,3 C 67 % 1004,4 hPa 0,0 l/m 8,6 km/h (2 Bft) O 90 10,2 C 16,3 C
21.05.2012 06:56 16,5 C 67 % 1004,4 hPa 0,0 l/m 7,9 km/h (2 Bft) O-NO 67 10,4 C 16,5 C
21.05.2012 07:01 16,9 C 66 % 1004,5 hPa 0,0 l/m 7,2 km/h (2 Bft) O-NO 67 10,5 C 16,9 C
21.05.2012 07:06 17,1 C 65 % 1004,4 hPa 0,0 l/m 9,4 km/h (2 Bft) O-SO 112 10,5 C 17,1 C
21.05.2012 07:11 17,3 C 65 % 1004,4 hPa 0,0 l/m 10,8 km/h (2 Bft) O-NO 67 10,7 C 17,3 C
21.05.2012 07:16 17,5 C 64 % 1004,4 hPa 0,0 l/m 4,0 km/h (1 Bft) O 90 10,6 C 17,5 C
21.05.2012 07:21 17,6 C 64 % 1004,4 hPa 0,0 l/m 10,1 km/h (2 Bft) O-SO 112 10,7 C 17,6 C
21.05.2012 07:26 17,9 C 64 % 1004,4 hPa 0,0 l/m 2,2 km/h (1 Bft) O-NO 67 11,0 C 17,9 C
21.05.2012 07:31 18,2 C 63 % 1004,3 hPa 0,0 l/m 10,4 km/h (2 Bft) O 90 11,0 C 18,2 C
21.05.2012 07:36 18,4 C 62 % 1004,3 hPa 0,0 l/m 5,0 km/h (1 Bft) O 90 11,0 C 18,4 C
21.05.2012 07:41 18,5 C 61 % 1004,4 hPa 0,0 l/m 6,8 km/h (2 Bft) O 90 10,8 C 18,5 C
21.05.2012 07:46 18,6 C 61 % 1004,3 hPa 0,0 l/m 5,8 km/h (2 Bft) O 90 10,9 C 18,6 C
21.05.2012 07:51 18,8 C 61 % 1004,1 hPa 0,0 l/m 7,9 km/h (2 Bft) O 90 11,1 C 18,8 C
21.05.2012 07:56 19,0 C 61 % 1004,2 hPa 0,0 l/m 7,6 km/h (2 Bft) O 90 11,3 C 19,0 C
21.05.2012 08:01 19,2 C 60 % 1004,1 hPa 0,0 l/m 7,2 km/h (2 Bft) O-SO 112 11,2 C 19,2 C
21.05.2012 08:06 19,4 C 60 % 1004,2 hPa 0,0 l/m 2,5 km/h (1 Bft) O-SO 112 11,4 C 19,4 C
21.05.2012 08:11 19,6 C 59 % 1004,2 hPa 0,0 l/m 2,5 km/h (1 Bft) O 90 11,4 C 19,6 C
21.05.2012 08:16 19,8 C 59 % 1004,1 hPa 0,0 l/m 7,6 km/h (2 Bft) NO 45 11,6 C 19,8 C
21.05.2012 08:21 19,9 C 58 % 1004,1 hPa 0,0 l/m 7,6 km/h (2 Bft) O-NO 67 11,4 C 19,9 C
21.05.2012 08:26 20,2 C 58 % 1004,1 hPa 0,0 l/m 14,4 km/h (3 Bft) O 90 11,7 C 20,2 C
21.05.2012 08:31 20,4 C 57 % 1004,1 hPa 0,0 l/m 8,3 km/h (2 Bft) NO 45 11,6 C 20,4 C
21.05.2012 08:36 20,5 C 56 % 1004,1 hPa 0,0 l/m 7,9 km/h (2 Bft) O 90 11,4 C 20,5 C
21.05.2012 08:41 20,6 C 56 % 1004,1 hPa 0,0 l/m 9,0 km/h (2 Bft) O 90 11,5 C 20,6 C
21.05.2012 08:46 20,8 C 56 % 1004,1 hPa 0,0 l/m 5,8 km/h (2 Bft) O-SO 112 11,7 C 20,8 C
21.05.2012 08:51 20,9 C 55 % 1004,1 hPa 0,0 l/m 9,4 km/h (2 Bft) O 90 11,5 C 20,9 C
21.05.2012 08:56 21,0 C 56 % 1004,1 hPa 0,0 l/m 13,7 km/h (3 Bft) NO 45 11,9 C 21,0 C
21.05.2012 09:01 21,1 C 55 % 1004,1 hPa 0,0 l/m 6,1 km/h (2 Bft) O-NO 67 11,7 C 21,1 C
21.05.2012 09:06 21,1 C 55 % 1004,1 hPa 0,0 l/m 6,8 km/h (2 Bft) O-NO 67 11,7 C 21,1 C
21.05.2012 09:11 21,1 C 55 % 1004,1 hPa 0,0 l/m 16,9 km/h (3 Bft) O 90 11,7 C 21,1 C
21.05.2012 09:16 20,9 C 55 % 1004,1 hPa 0,0 l/m 3,2 km/h (1 Bft) O 90 11,5 C 20,9 C
21.05.2012 09:21 21,0 C 56 % 1004,0 hPa 0,0 l/m 6,1 km/h (2 Bft) O-NO 67 11,9 C 21,0 C
21.05.2012 09:26 21,2 C 56 % 1004,0 hPa 0,0 l/m 2,2 km/h (1 Bft) O-NO 67 12,1 C 21,2 C
21.05.2012 09:31 21,5 C 56 % 1004,0 hPa 0,0 l/m 7,6 km/h (2 Bft) O-SO 112 12,3 C 21,5 C
21.05.2012 09:36 21,6 C 56 % 1004,0 hPa 0,0 l/m 14,8 km/h (3 Bft) O-NO 67 12,4 C 21,6 C
21.05.2012 09:41 21,8 C 55 % 1003,9 hPa 0,0 l/m 6,5 km/h (2 Bft) O-NO 67 12,4 C 21,8 C
21.05.2012 09:46 21,9 C 55 % 1003,9 hPa 0,0 l/m 7,6 km/h (2 Bft) O 90 12,4 C 21,9 C
21.05.2012 09:51 22,1 C 55 % 1003,8 hPa 0,0 l/m 8,3 km/h (2 Bft) O-SO 112 12,6 C 22,1 C
21.05.2012 09:56 22,3 C 54 % 1003,8 hPa 0,0 l/m 8,3 km/h (2 Bft) O-SO 112 12,5 C 22,3 C
21.05.2012 10:01 22,6 C 54 % 1003,7 hPa 0,0 l/m 6,5 km/h (2 Bft) O-NO 67 12,8 C 22,6 C
21.05.2012 10:06 22,8 C 52 % 1003,6 hPa 0,0 l/m 8,3 km/h (2 Bft) O 90 12,4 C 22,8 C
21.05.2012 10:11 22,9 C 51 % 1003,5 hPa 0,0 l/m 12,2 km/h (2 Bft) O-NO 67 12,2 C 22,9 C
21.05.2012 10:16 23,0 C 51 % 1003,5 hPa 0,0 l/m 4,7 km/h (1 Bft) O 90 12,3 C 23,0 C
21.05.2012 10:21 23,1 C 50 % 1003,5 hPa 0,0 l/m 7,9 km/h (2 Bft) O-NO 67 12,1 C 23,1 C
21.05.2012 10:26 23,1 C 50 % 1003,4 hPa 0,0 l/m 13,7 km/h (3 Bft) O-NO 67 12,1 C 23,1 C
21.05.2012 10:31 23,3 C 50 % 1003,4 hPa 0,0 l/m 5,0 km/h (1 Bft) SO 135 12,3 C 23,3 C
21.05.2012 10:36 23,4 C 50 % 1003,4 hPa 0,0 l/m 13,0 km/h (3 Bft) O 90 12,4 C 23,4 C
21.05.2012 10:41 23,5 C 49 % 1003,4 hPa 0,0 l/m 8,3 km/h (2 Bft) O 90 12,2 C 23,5 C
21.05.2012 10:46 23,8 C 49 % 1003,4 hPa 0,0 l/m 9,4 km/h (2 Bft) SO 135 12,4 C 23,8 C
21.05.2012 10:51 23,8 C 49 % 1003,3 hPa 0,0 l/m 16,6 km/h (3 Bft) O 90 12,4 C 23,8 C
21.05.2012 10:56 23,9 C 49 % 1003,3 hPa 0,0 l/m 4,0 km/h (1 Bft) S-SO 157 12,5 C 23,9 C
21.05.2012 11:01 23,9 C 49 % 1003,3 hPa 0,0 l/m 7,9 km/h (2 Bft) O-SO 112 12,5 C 23,9 C
21.05.2012 11:06 23,9 C 49 % 1003,3 hPa 0,0 l/m 5,4 km/h (1 Bft) O-SO 112 12,5 C 23,9 C
21.05.2012 11:11 24,2 C 49 % 1003,4 hPa 0,0 l/m 6,8 km/h (2 Bft) O 90 12,8 C 24,2 C
21.05.2012 11:16 24,4 C 49 % 1003,4 hPa 0,0 l/m 7,6 km/h (2 Bft) O-NO 67 13,0 C 24,4 C
21.05.2012 11:21 24,4 C 49 % 1003,5 hPa 0,0 l/m 15,8 km/h (3 Bft) O-SO 112 13,0 C 24,4 C
21.05.2012 11:26 24,2 C 48 % 1003,4 hPa 0,0 l/m 14,0 km/h (3 Bft) O 90 12,5 C 24,2 C
21.05.2012 11:31 24,1 C 48 % 1003,4 hPa 0,0 l/m 8,6 km/h (2 Bft) O-NO 67 12,4 C 24,1 C
21.05.2012 11:36 24,0 C 48 % 1003,4 hPa 0,0 l/m 18,0 km/h (3 Bft) SO 135 12,3 C 24,0 C
21.05.2012 11:41 24,1 C 48 % 1003,4 hPa 0,0 l/m 12,2 km/h (2 Bft) O 90 12,4 C 24,1 C
21.05.2012 11:46 24,1 C 48 % 1003,4 hPa 0,0 l/m 6,1 km/h (2 Bft) SO 135 12,4 C 24,1 C
21.05.2012 11:51 24,3 C 47 % 1003,4 hPa 0,0 l/m 21,2 km/h (4 Bft) O 90 12,3 C 24,3 C
21.05.2012 11:56 24,4 C 47 % 1003,3 hPa 0,0 l/m 20,2 km/h (4 Bft) O 90 12,3 C 24,4 C
21.05.2012 12:01 24,6 C 48 % 1003,4 hPa 0,0 l/m 13,3 km/h (3 Bft) O-SO 112 12,8 C 24,6 C
21.05.2012 12:06 24,9 C 47 % 1003,5 hPa 0,0 l/m 12,2 km/h (2 Bft) O 90 12,8 C 24,9 C
21.05.2012 12:11 25,2 C 47 % 1003,6 hPa 0,0 l/m 8,3 km/h (2 Bft) SO 135 13,1 C 25,2 C
21.05.2012 12:16 25,2 C 46 % 1003,4 hPa 0,0 l/m 13,3 km/h (3 Bft) O-SO 112 12,7 C 25,2 C
21.05.2012 12:21 25,1 C 46 % 1003,4 hPa 0,0 l/m 8,6 km/h (2 Bft) O 90 12,7 C 25,1 C
21.05.2012 12:26 25,1 C 46 % 1003,5 hPa 0,0 l/m 11,2 km/h (2 Bft) O 90 12,7 C 25,1 C
21.05.2012 12:31 25,0 C 47 % 1003,4 hPa 0,0 l/m 11,2 km/h (2 Bft) O-NO 67 12,9 C 25,0 C
21.05.2012 12:36 25,1 C 47 % 1003,3 hPa 0,0 l/m 7,6 km/h (2 Bft) SO 135 13,0 C 25,1 C
21.05.2012 12:41 25,4 C 48 % 1003,3 hPa 0,0 l/m 19,8 km/h (3 Bft) O 90 13,6 C 25,4 C
21.05.2012 12:46 25,5 C 46 % 1003,2 hPa 0,0 l/m 4,0 km/h (1 Bft) S-SO 157 13,0 C 25,5 C
21.05.2012 12:51 25,8 C 46 % 1003,1 hPa 0,0 l/m 7,6 km/h (2 Bft) O-SO 112 13,3 C 25,8 C
21.05.2012 12:56 25,8 C 45 % 1003,1 hPa 0,0 l/m 11,5 km/h (2 Bft) O-SO 112 13,0 C 25,8 C
21.05.2012 13:01 25,9 C 46 % 1003,1 hPa 0,0 l/m 14,4 km/h (3 Bft) O 90 13,4 C 25,9 C
21.05.2012 13:06 25,9 C 45 % 1003,0 hPa 0,0 l/m 18,7 km/h (3 Bft) O 90 13,0 C 25,9 C
21.05.2012 13:11 26,2 C 45 % 1002,9 hPa 0,0 l/m 13,0 km/h (3 Bft) SO 135 13,3 C 26,2 C
21.05.2012 13:16 26,3 C 46 % 1003,0 hPa 0,0 l/m 9,4 km/h (2 Bft) SO 135 13,7 C 26,3 C
21.05.2012 13:21 26,5 C 46 % 1003,0 hPa 0,0 l/m 7,6 km/h (2 Bft) O-SO 112 13,9 C 26,5 C
21.05.2012 13:26 26,6 C 44 % 1003,0 hPa 0,0 l/m 7,2 km/h (2 Bft) O 90 13,3 C 26,6 C
21.05.2012 13:31 26,8 C 45 % 1003,0 hPa 0,0 l/m 2,5 km/h (1 Bft) O-SO 112 13,9 C 26,8 C
21.05.2012 13:36 26,8 C 45 % 1003,0 hPa 0,0 l/m 15,8 km/h (3 Bft) O-NO 67 13,9 C 26,8 C
21.05.2012 13:41 26,8 C 45 % 1003,0 hPa 0,0 l/m 4,7 km/h (1 Bft) O-NO 67 13,9 C 26,8 C
21.05.2012 13:46 26,9 C 43 % 1003,1 hPa 0,0 l/m 23,0 km/h (4 Bft) SO 135 13,2 C 26,9 C
21.05.2012 13:51 26,8 C 42 % 1003,0 hPa 0,0 l/m 4,3 km/h (1 Bft) SO 135 12,8 C 26,8 C
21.05.2012 13:56 26,8 C 42 % 1003,1 hPa 0,0 l/m 20,5 km/h (4 Bft) SO 135 12,8 C 26,8 C
21.05.2012 14:01 26,7 C 43 % 1003,1 hPa 0,0 l/m 4,0 km/h (1 Bft) S-SO 157 13,1 C 26,7 C
21.05.2012 14:06 26,6 C 43 % 1003,1 hPa 0,0 l/m 11,9 km/h (2 Bft) O 90 13,0 C 26,6 C
21.05.2012 14:11 26,5 C 43 % 1003,2 hPa 0,0 l/m 10,1 km/h (2 Bft) SO 135 12,9 C 26,5 C
21.05.2012 14:16 26,6 C 43 % 1003,1 hPa 0,0 l/m 14,4 km/h (3 Bft) O-SO 112 13,0 C 26,6 C
21.05.2012 14:21 26,5 C 44 % 1003,1 hPa 0,0 l/m 4,7 km/h (1 Bft) SO 135 13,2 C 26,5 C
21.05.2012 14:26 26,6 C 44 % 1003,2 hPa 0,0 l/m 24,5 km/h (4 Bft) SO 135 13,3 C 26,6 C
21.05.2012 14:31 26,6 C 43 % 1003,3 hPa 0,0 l/m 11,9 km/h (2 Bft) SO 135 13,0 C 26,6 C
21.05.2012 14:36 26,6 C 43 % 1003,2 hPa 0,0 l/m 4,7 km/h (1 Bft) O 90 13,0 C 26,6 C
21.05.2012 14:41 26,7 C 43 % 1003,2 hPa 0,0 l/m 2,5 km/h (1 Bft) O 90 13,1 C 26,7 C
21.05.2012 14:46 26,7 C 44 % 1003,1 hPa 0,0 l/m 3,6 km/h (1 Bft) O 90 13,4 C 26,7 C
21.05.2012 14:51 26,6 C 44 % 1003,1 hPa 0,0 l/m 13,0 km/h (3 Bft) SO 135 13,3 C 26,6 C
21.05.2012 14:56 26,6 C 43 % 1003,2 hPa 0,0 l/m 3,2 km/h (1 Bft) O-SO 112 13,0 C 26,6 C
21.05.2012 15:01 26,5 C 44 % 1003,2 hPa 0,0 l/m 4,0 km/h (1 Bft) O-SO 112 13,2 C 26,5 C
21.05.2012 15:06 26,4 C 44 % 1003,1 hPa 0,0 l/m 3,2 km/h (1 Bft) O 90 13,1 C 26,4 C
21.05.2012 15:11 26,4 C 44 % 1003,2 hPa 0,0 l/m 12,6 km/h (3 Bft) O-SO 112 13,1 C 26,4 C
21.05.2012 15:16 26,4 C 44 % 1003,2 hPa 0,0 l/m 5,4 km/h (1 Bft) O-SO 112 13,1 C 26,4 C
21.05.2012 15:21 26,4 C 44 % 1003,1 hPa 0,0 l/m 11,9 km/h (2 Bft) SO 135 13,1 C 26,4 C
21.05.2012 15:26 26,4 C 45 % 1003,1 hPa 0,0 l/m 6,8 km/h (2 Bft) O-SO 112 13,5 C 26,4 C
21.05.2012 15:31 26,4 C 45 % 1003,1 hPa 0,0 l/m 4,0 km/h (1 Bft) O-SO 112 13,5 C 26,4 C
21.05.2012 15:36 26,4 C 46 % 1003,1 hPa 0,0 l/m 14,8 km/h (3 Bft) O 90 13,8 C 26,4 C
21.05.2012 15:41 26,4 C 46 % 1003,0 hPa 0,0 l/m 10,1 km/h (2 Bft) O 90 13,8 C 26,4 C
21.05.2012 15:46 26,4 C 46 % 1003,1 hPa 0,0 l/m 5,8 km/h (2 Bft) O 90 13,8 C 26,4 C
21.05.2012 15:51 26,5 C 46 % 1003,1 hPa 0,0 l/m 13,0 km/h (3 Bft) O 90 13,9 C 26,5 C
21.05.2012 15:56 26,7 C 47 % 1003,1 hPa 0,0 l/m 5,8 km/h (2 Bft) O 90 14,4 C 26,7 C
21.05.2012 16:01 26,9 C 46 % 1003,2 hPa 0,0 l/m 2,9 km/h (1 Bft) O-SO 112 14,3 C 26,9 C
21.05.2012 16:06 27,1 C 45 % 1003,1 hPa 0,0 l/m 20,2 km/h (4 Bft) SO 135 14,1 C 27,1 C
21.05.2012 16:11 27,1 C 43 % 1003,3 hPa 0,0 l/m 6,8 km/h (2 Bft) O 90 13,4 C 27,1 C
21.05.2012 16:16 27,2 C 43 % 1003,3 hPa 0,0 l/m 10,1 km/h (2 Bft) O-NO 67 13,5 C 27,2 C
21.05.2012 16:21 27,3 C 43 % 1003,3 hPa 0,0 l/m 14,8 km/h (3 Bft) O-SO 112 13,6 C 27,3 C
21.05.2012 16:26 27,4 C 44 % 1003,3 hPa 0,0 l/m 5,0 km/h (1 Bft) O-SO 112 14,0 C 27,4 C
21.05.2012 16:31 27,4 C 43 % 1003,3 hPa 0,0 l/m 5,0 km/h (1 Bft) O-SO 112 13,7 C 27,4 C
21.05.2012 16:36 27,6 C 43 % 1003,4 hPa 0,0 l/m 16,9 km/h (3 Bft) SO 135 13,9 C 27,6 C
21.05.2012 16:41 27,7 C 42 % 1003,3 hPa 0,0 l/m 8,3 km/h (2 Bft) O 90 13,6 C 27,7 C
21.05.2012 16:46 27,8 C 42 % 1003,2 hPa 0,0 l/m 14,8 km/h (3 Bft) O-NO 67 13,7 C 27,8 C
21.05.2012 16:51 27,7 C 42 % 1003,2 hPa 0,0 l/m 5,8 km/h (2 Bft) O 90 13,6 C 27,7 C
21.05.2012 16:56 27,6 C 42 % 1003,1 hPa 0,0 l/m 9,7 km/h (2 Bft) O-NO 67 13,5 C 27,6 C
21.05.2012 17:01 27,8 C 42 % 1003,1 hPa 0,0 l/m 9,0 km/h (2 Bft) O 90 13,7 C 27,8 C
21.05.2012 17:06 27,8 C 42 % 1003,1 hPa 0,0 l/m 3,2 km/h (1 Bft) O 90 13,7 C 27,8 C
21.05.2012 17:11 27,8 C 42 % 1003,1 hPa 0,0 l/m 7,2 km/h (2 Bft) SO 135 13,7 C 27,8 C
21.05.2012 17:16 27,5 C 42 % 1003,3 hPa 0,0 l/m 4,7 km/h (1 Bft) SO 135 13,4 C 27,5 C
21.05.2012 17:21 27,4 C 44 % 1003,3 hPa 0,0 l/m 9,7 km/h (2 Bft) O-NO 67 14,0 C 27,4 C
21.05.2012 17:26 27,3 C 45 % 1003,2 hPa 0,0 l/m 15,1 km/h (3 Bft) O-SO 112 14,3 C 27,3 C
21.05.2012 17:31 27,3 C 45 % 1003,1 hPa 0,0 l/m 5,0 km/h (1 Bft) O-SO 112 14,3 C 27,3 C
21.05.2012 17:36 27,3 C 45 % 1003,1 hPa 0,0 l/m 7,6 km/h (2 Bft) O-NO 67 14,3 C 27,3 C
21.05.2012 17:41 27,3 C 45 % 1003,0 hPa 0,0 l/m 9,0 km/h (2 Bft) O-NO 67 14,3 C 27,3 C
21.05.2012 17:46 27,3 C 45 % 1003,0 hPa 0,0 l/m 9,7 km/h (2 Bft) O 90 14,3 C 27,3 C
21.05.2012 17:51 27,3 C 45 % 1003,0 hPa 0,0 l/m 13,0 km/h (3 Bft) O-NO 67 14,3 C 27,3 C
21.05.2012 17:56 27,3 C 45 % 1003,0 hPa 0,0 l/m 5,0 km/h (1 Bft) O 90 14,3 C 27,3 C
21.05.2012 18:01 27,3 C 46 % 1002,9 hPa 0,0 l/m 7,6 km/h (2 Bft) O 90 14,6 C 27,3 C
21.05.2012 18:06 27,3 C 46 % 1003,0 hPa 0,0 l/m 7,2 km/h (2 Bft) O-SO 112 14,6 C 27,3 C
21.05.2012 18:11 27,2 C 46 % 1003,0 hPa 0,0 l/m 5,0 km/h (1 Bft) O-SO 112 14,6 C 27,2 C
21.05.2012 18:16 27,2 C 45 % 1003,1 hPa 0,0 l/m 8,3 km/h (2 Bft) O-SO 112 14,2 C 27,2 C
21.05.2012 18:21 27,1 C 45 % 1003,0 hPa 0,0 l/m 5,0 km/h (1 Bft) SO 135 14,1 C 27,1 C
21.05.2012 18:26 27,1 C 45 % 1003,0 hPa 0,0 l/m 11,9 km/h (2 Bft) O-NO 67 14,1 C 27,1 C
21.05.2012 18:31 27,0 C 43 % 1003,0 hPa 0,0 l/m 8,3 km/h (2 Bft) O-SO 112 13,3 C 27,0 C
21.05.2012 18:36 26,9 C 44 % 1002,9 hPa 0,0 l/m 13,3 km/h (3 Bft) O-NO 67 13,6 C 26,9 C
21.05.2012 18:41 26,9 C 45 % 1003,0 hPa 0,0 l/m 19,1 km/h (3 Bft) O 90 13,9 C 26,9 C
21.05.2012 18:46 26,9 C 45 % 1003,0 hPa 0,0 l/m 9,4 km/h (2 Bft) O-NO 67 13,9 C 26,9 C
21.05.2012 18:51 26,8 C 45 % 1003,0 hPa 0,0 l/m 4,0 km/h (1 Bft) O 90 13,9 C 26,8 C
21.05.2012 18:56 26,7 C 46 % 1003,0 hPa 0,0 l/m 4,7 km/h (1 Bft) O 90 14,1 C 26,7 C
21.05.2012 19:01 26,7 C 46 % 1003,0 hPa 0,0 l/m 6,8 km/h (2 Bft) O 90 14,1 C 26,7 C
21.05.2012 19:06 26,6 C 47 % 1002,9 hPa 0,0 l/m 4,7 km/h (1 Bft) O-NO 67 14,3 C 26,6 C
21.05.2012 19:11 26,3 C 47 % 1002,9 hPa 0,0 l/m 5,0 km/h (1 Bft) O-NO 67 14,1 C 26,3 C
21.05.2012 19:16 26,2 C 48 % 1002,8 hPa 0,0 l/m 9,7 km/h (2 Bft) SO 135 14,3 C 26,2 C
21.05.2012 19:21 26,1 C 48 % 1002,9 hPa 0,0 l/m 8,3 km/h (2 Bft) O-NO 67 14,2 C 26,1 C
21.05.2012 19:26 25,9 C 48 % 1002,9 hPa 0,0 l/m 6,1 km/h (2 Bft) O 90 14,0 C 25,9 C
21.05.2012 19:31 25,9 C 48 % 1002,9 hPa 0,0 l/m 4,0 km/h (1 Bft) O-SO 112 14,0 C 25,9 C
21.05.2012 19:36 25,8 C 49 % 1002,8 hPa 0,0 l/m 5,0 km/h (1 Bft) O 90 14,3 C 25,8 C
21.05.2012 19:41 25,8 C 49 % 1002,9 hPa 0,0 l/m 7,6 km/h (2 Bft) O 90 14,3 C 25,8 C
21.05.2012 19:46 25,7 C 49 % 1003,0 hPa 0,0 l/m 9,7 km/h (2 Bft) O-SO 112 14,2 C 25,7 C
21.05.2012 19:51 25,6 C 49 % 1003,0 hPa 0,0 l/m 4,0 km/h (1 Bft) O-SO 112 14,1 C 25,6 C
21.05.2012 19:56 25,5 C 50 % 1002,9 hPa 0,0 l/m 6,8 km/h (2 Bft) O 90 14,3 C 25,5 C
21.05.2012 20:01 25,4 C 50 % 1002,9 hPa 0,0 l/m 6,1 km/h (2 Bft) O-NO 67 14,2 C 25,4 C
21.05.2012 20:06 25,3 C 50 % 1003,1 hPa 0,0 l/m 5,0 km/h (1 Bft) O-SO 112 14,1 C 25,3 C
21.05.2012 20:11 25,3 C 49 % 1003,1 hPa 0,0 l/m 5,8 km/h (2 Bft) O 90 13,8 C 25,3 C
21.05.2012 20:16 25,2 C 49 % 1003,2 hPa 0,0 l/m 6,8 km/h (2 Bft) O-NO 67 13,7 C 25,2 C
21.05.2012 20:21 25,1 C 49 % 1003,3 hPa 0,0 l/m 7,2 km/h (2 Bft) O-SO 112 13,6 C 25,1 C
21.05.2012 20:26 25,1 C 47 % 1003,3 hPa 0,0 l/m 6,8 km/h (2 Bft) O-SO 112 13,0 C 25,1 C
21.05.2012 20:31 25,1 C 47 % 1003,1 hPa 0,0 l/m 9,7 km/h (2 Bft) O 90 13,0 C 25,1 C
21.05.2012 20:36 24,9 C 48 % 1003,3 hPa 0,0 l/m 7,2 km/h (2 Bft) O 90 13,1 C 24,9 C
21.05.2012 20:41 24,8 C 48 % 1003,4 hPa 0,0 l/m 8,6 km/h (2 Bft) O-NO 67 13,0 C 24,8 C
21.05.2012 20:46 24,6 C 49 % 1003,4 hPa 0,0 l/m 4,7 km/h (1 Bft) O 90 13,2 C 24,6 C
21.05.2012 20:51 24,4 C 49 % 1003,5 hPa 0,0 l/m 0,0 km/h (0 Bft) O-SO 112 13,0 C 24,4 C
21.05.2012 20:56 24,3 C 49 % 1003,6 hPa 0,0 l/m 6,5 km/h (2 Bft) O 90 12,9 C 24,3 C
21.05.2012 21:01 24,2 C 48 % 1003,6 hPa 0,0 l/m 6,1 km/h (2 Bft) O-SO 112 12,5 C 24,2 C
21.05.2012 21:06 24,1 C 48 % 1003,7 hPa 0,0 l/m 4,3 km/h (1 Bft) SO 135 12,4 C 24,1 C
21.05.2012 21:11 24,1 C 48 % 1003,8 hPa 0,0 l/m 8,6 km/h (2 Bft) SO 135 12,4 C 24,1 C
21.05.2012 21:16 23,9 C 48 % 1003,8 hPa 0,0 l/m 6,8 km/h (2 Bft) O 90 12,2 C 23,9 C
21.05.2012 21:21 23,9 C 48 % 1003,8 hPa 0,0 l/m 13,0 km/h (3 Bft) O 90 12,2 C 23,9 C
21.05.2012 21:26 23,8 C 48 % 1004,0 hPa 0,0 l/m 4,7 km/h (1 Bft) O-SO 112 12,1 C 23,8 C
21.05.2012 21:31 23,8 C 48 % 1004,0 hPa 0,0 l/m 4,0 km/h (1 Bft) O 90 12,1 C 23,8 C
21.05.2012 21:36 23,7 C 48 % 1004,1 hPa 0,0 l/m 5,8 km/h (2 Bft) O 90 12,0 C 23,7 C
21.05.2012 21:41 23,6 C 49 % 1004,2 hPa 0,0 l/m 6,5 km/h (2 Bft) O 90 12,2 C 23,6 C
21.05.2012 21:46 23,4 C 49 % 1004,2 hPa 0,0 l/m 7,2 km/h (2 Bft) O 90 12,1 C 23,4 C
21.05.2012 21:51 23,3 C 50 % 1004,3 hPa 0,0 l/m 2,5 km/h (1 Bft) O-NO 67 12,3 C 23,3 C
21.05.2012 21:56 23,1 C 50 % 1004,4 hPa 0,0 l/m 4,0 km/h (1 Bft) O 90 12,1 C 23,1 C
21.05.2012 22:01 22,9 C 51 % 1004,5 hPa 0,0 l/m 6,8 km/h (2 Bft) O-SO 112 12,2 C 22,9 C
21.05.2012 22:06 22,9 C 51 % 1004,5 hPa 0,0 l/m 6,8 km/h (2 Bft) O-NO 67 12,2 C 22,9 C
21.05.2012 22:11 22,8 C 52 % 1004,5 hPa 0,0 l/m 7,2 km/h (2 Bft) O-NO 67 12,4 C 22,8 C
21.05.2012 22:16 22,6 C 52 % 1004,4 hPa 0,0 l/m 8,3 km/h (2 Bft) O-SO 112 12,2 C 22,6 C
21.05.2012 22:21 22,6 C 52 % 1004,4 hPa 0,0 l/m 6,5 km/h (2 Bft) SO 135 12,2 C 22,6 C
21.05.2012 22:26 22,6 C 52 % 1004,5 hPa 0,0 l/m 9,0 km/h (2 Bft) O-SO 112 12,2 C 22,6 C
21.05.2012 22:31 22,6 C 52 % 1004,5 hPa 0,0 l/m 4,3 km/h (1 Bft) O 90 12,2 C 22,6 C
21.05.2012 22:36 22,5 C 52 % 1004,6 hPa 0,0 l/m 5,4 km/h (1 Bft) O-NO 67 12,1 C 22,5 C
21.05.2012 22:41 22,4 C 53 % 1004,7 hPa 0,0 l/m 5,8 km/h (2 Bft) O 90 12,3 C 22,4 C
21.05.2012 22:46 22,2 C 53 % 1004,6 hPa 0,0 l/m 4,7 km/h (1 Bft) O-NO 67 12,2 C 22,2 C
21.05.2012 22:51 22,1 C 54 % 1004,6 hPa 0,0 l/m 2,2 km/h (1 Bft) SO 135 12,3 C 22,1 C
21.05.2012 22:56 21,9 C 54 % 1004,6 hPa 0,0 l/m 9,0 km/h (2 Bft) O 90 12,2 C 21,9 C
21.05.2012 23:01 21,8 C 55 % 1004,6 hPa 0,0 l/m 7,6 km/h (2 Bft) O 90 12,4 C 21,8 C
21.05.2012 23:06 21,7 C 55 % 1004,7 hPa 0,0 l/m 4,0 km/h (1 Bft) O 90 12,3 C 21,7 C
21.05.2012 23:11 21,6 C 55 % 1004,7 hPa 0,0 l/m 4,0 km/h (1 Bft) O 90 12,2 C 21,6 C
21.05.2012 23:16 21,6 C 55 % 1004,8 hPa 0,0 l/m 2,2 km/h (1 Bft) O-SO 112 12,2 C 21,6 C
21.05.2012 23:21 21,6 C 55 % 1004,9 hPa 0,0 l/m 2,9 km/h (1 Bft) O-NO 67 12,2 C 21,6 C
21.05.2012 23:26 21,5 C 56 % 1005,0 hPa 0,0 l/m 4,0 km/h (1 Bft) O-SO 112 12,3 C 21,5 C
21.05.2012 23:31 21,4 C 56 % 1005,1 hPa 0,0 l/m 3,6 km/h (1 Bft) O-SO 112 12,3 C 21,4 C
21.05.2012 23:36 21,3 C 56 % 1005,1 hPa 0,0 l/m 2,2 km/h (1 Bft) O-NO 67 12,2 C 21,3 C
21.05.2012 23:41 21,3 C 56 % 1005,0 hPa 0,0 l/m 0,0 km/h (0 Bft) O-SO 112 12,2 C 21,3 C
21.05.2012 23:46 21,2 C 56 % 1005,0 hPa 0,0 l/m 0,0 km/h (0 Bft) O 90 12,1 C 21,2 C
21.05.2012 23:51 21,1 C 57 % 1005,0 hPa 0,0 l/m 2,5 km/h (1 Bft) O 90 12,2 C 21,1 C
21.05.2012 23:56 21,0 C 57 % 1005,0 hPa 0,0 l/m 5,0 km/h (1 Bft) O 90 12,1 C 21,0 C
_ Min-Zeit 05:36 13:51 19:16 - 20:51 - - 00:26 05:36
Minimum _ 15,4 C 42 % 1002,8 hPa - 0,0 km/h (0 Bft) - - 8,5 C 15,4 C
_ Max-Zeit 16:46 05:46 00:01 00:01 14:26 - - 18:01 16:46
Maximum _ 27,8 C 68 % 1006,7 hPa 0,0 l/m 24,5 km/h
SO (4 Bft)
- - 14,6 C 27,8 C
Durchschnitt _ 22,1 C 53 % 1004,1 hPa #0,0 l/m 7,5 km/h (2 Bft) O - 11,8 C 22,1 C
(c) by David Heller